Time,TemperatureF,DewpointF,PressureIn,WindDirection,WindDirectionDegrees,WindSpeedMPH,WindSpeedGustMPH,Humidity,HourlyPrecipIn,Conditions,Clouds,dailyrainin,SoftwareType,DateUTC
2013-05-24 00:02:00,54.3,11.7,28.99,ENE,58,2.7,4.9,18,0.00,,---,0.00,VWS V14.01,2013-05-24 06:02:00,
2013-05-24 00:07:00,53.6,11.1,28.96,West,273,0.0,0.0,18,0.00,,---,0.00,VWS V14.01,2013-05-24 06:07:00,
2013-05-24 00:13:00,53.2,10.9,28.96,WNW,289,0.0,0.0,18,0.00,,---,0.00,VWS V14.01,2013-05-24 06:13:00,
2013-05-24 00:19:00,53.1,10.7,28.96,WNW,303,3.6,4.0,18,0.00,,---,0.00,VWS V14.01,2013-05-24 06:19:00,
2013-05-24 00:24:00,52.9,10.6,28.96,ENE,64,0.0,0.0,18,0.00,,---,0.00,VWS V14.01,2013-05-24 06:24:00,
2013-05-24 00:30:00,52.3,10.1,28.96,ENE,74,0.0,0.0,18,0.00,,---,0.00,VWS V14.01,2013-05-24 06:30:00,
2013-05-24 00:35:00,52.2,10.0,28.99,NE,44,0.0,0.0,18,0.00,,---,0.00,VWS V14.01,2013-05-24 06:35:00,
2013-05-24 00:41:00,52.0,9.8,28.99,NE,51,0.0,0.0,18,0.00,,---,0.00,VWS V14.01,2013-05-24 06:41:00,
2013-05-24 00:47:00,51.8,9.7,28.99,NE,55,0.0,0.0,18,0.00,,---,0.00,VWS V14.01,2013-05-24 06:47:00,
2013-05-24 00:52:00,51.6,10.7,28.96,NE,55,0.0,0.0,19,0.00,,---,0.00,VWS V14.01,2013-05-24 06:52:00,
2013-05-24 00:58:00,51.4,10.6,28.96,NE,55,0.0,0.0,19,0.00,,---,0.00,VWS V14.01,2013-05-24 06:58:00,
2013-05-24 01:03:00,51.3,10.4,28.96,ENE,75,0.0,0.0,19,0.00,,---,0.00,VWS V14.01,2013-05-24 07:03:00,
2013-05-24 01:09:00,51.1,10.3,28.96,ENE,73,0.0,0.0,19,0.00,,---,0.00,VWS V14.01,2013-05-24 07:09:00,
2013-05-24 01:15:00,50.7,10.0,28.96,East,82,0.0,0.0,19,0.00,,---,0.00,VWS V14.01,2013-05-24 07:15:00,
2013-05-24 01:20:00,50.4,9.7,28.96,East,81,0.0,0.0,19,0.00,,---,0.00,VWS V14.01,2013-05-24 07:20:00,
2013-05-24 01:26:00,50.0,9.4,28.96,ESE,121,0.0,0.0,19,0.00,,---,0.00,VWS V14.01,2013-05-24 07:26:00,
2013-05-24 01:31:00,49.6,9.1,28.96,SSE,164,0.0,0.0,19,0.00,,---,0.00,VWS V14.01,2013-05-24 07:31:00,
2013-05-24 01:37:00,49.5,8.9,28.96,South,184,0.0,0.0,19,0.00,,---,0.00,VWS V14.01,2013-05-24 07:37:00,
2013-05-24 01:42:00,49.3,8.8,28.96,WSW,248,0.0,0.0,19,0.00,,---,0.00,VWS V14.01,2013-05-24 07:42:00,
2013-05-24 01:47:00,48.9,8.5,28.96,SSW,207,0.0,0.0,19,0.00,,---,0.00,VWS V14.01,2013-05-24 07:47:00,
2013-05-24 01:52:00,48.6,8.2,28.96,SW,220,0.0,4.9,19,0.00,,---,0.00,VWS V14.01,2013-05-24 07:52:00,
2013-05-24 01:58:00,48.2,7.9,28.96,SSW,192,5.8,5.8,19,0.00,,---,0.00,VWS V14.01,2013-05-24 07:58:00,
2013-05-24 02:04:00,47.8,7.6,28.96,SW,217,0.0,0.0,19,0.00,,---,0.00,VWS V14.01,2013-05-24 08:04:00,
2013-05-24 02:09:00,47.7,7.4,28.96,SSW,197,4.0,5.8,19,0.00,,---,0.00,VWS V14.01,2013-05-24 08:09:00,
2013-05-24 02:15:00,47.3,7.1,28.96,SW,221,4.0,4.0,19,0.00,,---,0.00,VWS V14.01,2013-05-24 08:15:00,
2013-05-24 02:20:00,46.9,6.8,28.96,SSE,165,0.0,2.2,19,0.00,,---,0.00,VWS V14.01,2013-05-24 08:20:00,
2013-05-24 02:26:00,47.1,7.0,28.96,SW,232,0.0,0.0,19,0.00,,---,0.00,VWS V14.01,2013-05-24 08:26:00,
2013-05-24 02:32:00,47.1,7.0,28.96,ESE,113,0.0,0.0,19,0.00,,---,0.00,VWS V14.01,2013-05-24 08:32:00,
2013-05-24 02:37:00,46.9,6.8,28.96,ESE,113,0.0,0.0,19,0.00,,---,0.00,VWS V14.01,2013-05-24 08:37:00,
2013-05-24 02:43:00,46.8,6.7,28.96,ESE,104,0.0,0.0,19,0.00,,---,0.00,VWS V14.01,2013-05-24 08:43:00,
2013-05-24 02:48:00,46.6,6.5,28.96,SE,139,0.0,0.0,19,0.00,,---,0.00,VWS V14.01,2013-05-24 08:48:00,
2013-05-24 02:53:00,46.4,6.4,28.96,South,191,6.3,6.3,19,0.00,,---,0.00,VWS V14.01,2013-05-24 08:53:00,
2013-05-24 02:58:00,46.2,7.4,28.96,SSW,198,0.0,5.4,20,0.00,,---,0.00,VWS V14.01,2013-05-24 08:58:00,
2013-05-24 03:04:00,46.0,7.2,28.96,South,182,0.0,0.0,20,0.00,,---,0.00,VWS V14.01,2013-05-24 09:04:00,
2013-05-24 03:10:00,45.9,7.1,28.96,SSW,199,0.0,0.0,20,0.00,,---,0.00,VWS V14.01,2013-05-24 09:10:00,
2013-05-24 03:16:00,45.9,7.1,28.96,SSW,213,3.1,5.8,20,0.00,,---,0.00,VWS V14.01,2013-05-24 09:16:00,
2013-05-24 03:22:00,45.5,6.8,28.99,SSW,206,4.0,5.4,20,0.00,,---,0.00,VWS V14.01,2013-05-24 09:22:00,
2013-05-24 03:27:00,45.3,6.6,28.99,SSW,206,4.0,5.8,20,0.00,,---,0.00,VWS V14.01,2013-05-24 09:27:00,
2013-05-24 03:33:00,45.0,6.3,28.99,South,176,4.0,4.9,20,0.00,,---,0.00,VWS V14.01,2013-05-24 09:33:00,
2013-05-24 03:38:00,44.6,6.0,28.96,SE,128,2.7,3.6,20,0.00,,---,0.00,VWS V14.01,2013-05-24 09:38:00,
2013-05-24 03:43:00,44.6,6.0,28.96,SW,214,4.9,5.4,20,0.00,,---,0.00,VWS V14.01,2013-05-24 09:43:00,
2013-05-24 03:48:00,44.6,6.0,28.96,SSW,210,2.7,4.9,20,0.00,,---,0.00,VWS V14.01,2013-05-24 09:48:00,
2013-05-24 03:54:00,44.4,5.9,28.99,SSW,202,4.0,5.4,20,0.00,,---,0.00,VWS V14.01,2013-05-24 09:54:00,
2013-05-24 03:59:00,44.2,5.7,28.99,West,268,0.0,0.0,20,0.00,,---,0.00,VWS V14.01,2013-05-24 09:59:00,
2013-05-24 04:05:00,43.9,5.4,28.99,WSW,252,0.0,0.0,20,0.00,,---,0.00,VWS V14.01,2013-05-24 10:05:00,
2013-05-24 04:11:00,43.7,5.3,28.96,SSW,202,0.0,0.0,20,0.00,,---,0.00,VWS V14.01,2013-05-24 10:11:00,
2013-05-24 04:16:00,43.5,5.1,28.96,South,171,4.9,5.4,20,0.00,,---,0.00,VWS V14.01,2013-05-24 10:16:00,
2013-05-24 04:21:00,43.3,5.0,28.96,South,177,0.0,0.0,20,0.00,,---,0.00,VWS V14.01,2013-05-24 10:21:00,
2013-05-24 04:26:00,43.5,5.1,28.96,SSW,195,2.7,5.4,20,0.00,,---,0.00,VWS V14.01,2013-05-24 10:26:00,
2013-05-24 04:32:00,43.5,5.1,28.96,SSW,197,7.2,8.1,20,0.00,,---,0.00,VWS V14.01,2013-05-24 10:32:00,
2013-05-24 04:37:00,43.2,4.8,28.99,SSW,201,4.0,5.4,20,0.00,,---,0.00,VWS V14.01,2013-05-24 10:37:00,
2013-05-24 04:43:00,43.0,4.7,28.99,South,184,2.7,5.8,20,0.00,,---,0.00,VWS V14.01,2013-05-24 10:43:00,
2013-05-24 04:49:00,43.3,5.0,28.99,SW,216,4.9,6.3,20,0.00,,---,0.00,VWS V14.01,2013-05-24 10:49:00,
2013-05-24 04:54:00,43.0,4.7,28.99,South,177,4.0,5.4,20,0.00,,---,0.00,VWS V14.01,2013-05-24 10:54:00,
2013-05-24 04:59:00,42.3,5.1,28.99,SSW,196,6.3,6.3,21,0.00,,---,0.00,VWS V14.01,2013-05-24 10:59:00,
2013-05-24 05:04:00,42.1,5.0,28.99,South,181,4.0,5.8,21,0.00,,---,0.00,VWS V14.01,2013-05-24 11:04:00,
2013-05-24 05:10:00,41.7,4.7,28.99,SSE,158,0.0,4.9,21,0.00,,---,0.00,VWS V14.01,2013-05-24 11:10:00,
2013-05-24 05:15:00,41.4,4.4,28.99,SW,224,3.1,4.0,21,0.00,,---,0.00,VWS V14.01,2013-05-24 11:15:00,
2013-05-24 05:21:00,41.2,4.2,28.96,SW,234,4.9,5.8,21,0.00,,---,0.00,VWS V14.01,2013-05-24 11:21:00,
2013-05-24 05:26:00,41.0,4.1,28.96,SW,235,0.0,0.0,21,0.00,,---,0.00,VWS V14.01,2013-05-24 11:26:00,
2013-05-24 05:32:00,40.8,3.9,28.96,SW,235,0.0,0.0,21,0.00,,---,0.00,VWS V14.01,2013-05-24 11:32:00,
2013-05-24 05:38:00,40.6,3.8,28.99,SSW,211,0.0,0.0,21,0.00,,---,0.00,VWS V14.01,2013-05-24 11:38:00,
2013-05-24 05:43:00,40.6,3.8,28.99,WSW,243,0.0,0.0,21,0.00,,---,0.00,VWS V14.01,2013-05-24 11:43:00,
2013-05-24 05:49:00,40.6,3.8,28.99,WSW,243,0.0,0.0,21,0.00,,---,0.00,VWS V14.01,2013-05-24 11:49:00,
2013-05-24 05:54:00,40.6,3.8,28.99,WSW,243,0.0,0.0,21,0.00,,---,0.00,VWS V14.01,2013-05-24 11:54:00,
2013-05-24 06:00:00,40.6,3.8,28.99,WSW,243,0.0,0.0,21,0.00,,---,0.00,VWS V14.01,2013-05-24 12:00:00,
2013-05-24 06:06:00,40.6,3.8,28.99,WSW,243,0.0,0.0,21,0.00,,---,0.00,VWS V14.01,2013-05-24 12:06:00,
2013-05-24 06:11:00,40.5,3.6,28.99,WSW,243,0.0,0.0,21,0.00,,---,0.00,VWS V14.01,2013-05-24 12:11:00,
2013-05-24 06:17:00,40.5,3.6,28.99,WSW,243,0.0,0.0,21,0.00,,---,0.00,VWS V14.01,2013-05-24 12:17:00,
2013-05-24 06:22:00,40.3,3.5,29.02,WSW,243,0.0,0.0,21,0.00,,---,0.00,VWS V14.01,2013-05-24 12:22:00,
2013-05-24 06:28:00,40.5,3.6,29.02,WSW,243,0.0,0.0,21,0.00,,---,0.00,VWS V14.01,2013-05-24 12:28:00,
2013-05-24 06:33:00,40.5,3.6,29.02,WSW,243,0.0,0.0,21,0.00,,---,0.00,VWS V14.01,2013-05-24 12:33:00,
2013-05-24 06:39:00,40.5,3.6,29.02,WSW,243,0.0,0.0,21,0.00,,---,0.00,VWS V14.01,2013-05-24 12:39:00,
2013-05-24 06:44:00,40.5,3.6,29.02,WSW,243,0.0,0.0,21,0.00,,---,0.00,VWS V14.01,2013-05-24 12:44:00,
2013-05-24 06:50:00,40.5,3.6,28.99,WSW,243,0.0,0.0,21,0.00,,---,0.00,VWS V14.01,2013-05-24 12:50:00,
2013-05-24 06:55:00,40.5,3.6,28.99,South,184,5.4,5.4,21,0.00,,---,0.00,VWS V14.01,2013-05-24 12:55:00,
2013-05-24 07:01:00,40.5,3.6,28.99,South,184,4.0,4.0,21,0.00,,---,0.00,VWS V14.01,2013-05-24 13:01:00,
2013-05-24 07:07:00,40.6,3.8,29.02,South,189,0.0,0.0,21,0.00,,---,0.00,VWS V14.01,2013-05-24 13:07:00,
2013-05-24 07:12:00,40.5,3.6,29.02,South,189,0.0,0.0,21,0.00,,---,0.00,VWS V14.01,2013-05-24 13:12:00,
2013-05-24 07:17:00,40.5,3.6,29.02,South,189,0.0,0.0,21,0.00,,---,0.00,VWS V14.01,2013-05-24 13:17:00,
2013-05-24 07:22:00,40.5,3.6,28.99,South,184,0.0,0.0,21,0.00,,---,0.00,VWS V14.01,2013-05-24 13:22:00,
2013-05-24 07:28:00,40.8,3.9,28.99,South,183,0.0,3.6,21,0.00,,---,0.00,VWS V14.01,2013-05-24 13:28:00,
2013-05-24 07:33:00,40.8,3.9,28.99,South,183,0.0,0.0,21,0.00,,---,0.00,VWS V14.01,2013-05-24 13:33:00,
2013-05-24 07:39:00,41.0,4.1,28.99,SSE,151,0.0,2.2,21,0.00,,---,0.00,VWS V14.01,2013-05-24 13:39:00,
2013-05-24 07:44:00,41.2,4.2,28.99,SSE,151,0.0,0.0,21,0.00,,---,0.00,VWS V14.01,2013-05-24 13:44:00,
2013-05-24 07:50:00,41.2,4.2,28.99,SW,219,5.4,5.4,21,0.00,,---,0.00,VWS V14.01,2013-05-24 13:50:00,
2013-05-24 07:55:00,41.4,4.4,28.99,South,186,0.0,4.0,21,0.00,,---,0.00,VWS V14.01,2013-05-24 13:55:00,
2013-05-24 08:01:00,41.7,4.7,28.99,SSW,208,0.0,0.0,21,0.00,,---,0.00,VWS V14.01,2013-05-24 14:01:00,
2013-05-24 08:06:00,41.9,4.8,28.99,SSW,210,0.0,0.0,21,0.00,,---,0.00,VWS V14.01,2013-05-24 14:06:00,
2013-05-24 08:12:00,43.2,4.8,28.99,East,83,0.0,0.0,20,0.00,,---,0.00,VWS V14.01,2013-05-24 14:12:00,
2013-05-24 08:17:00,44.6,6.0,28.99,ENE,72,0.0,4.0,20,0.00,,---,0.00,VWS V14.01,2013-05-24 14:17:00,
2013-05-24 08:23:00,45.9,7.1,28.99,East,83,0.0,0.0,20,0.00,,---,0.00,VWS V14.01,2013-05-24 14:23:00,
2013-05-24 08:28:00,46.0,7.2,28.99,East,83,0.0,0.0,20,0.00,,---,0.00,VWS V14.01,2013-05-24 14:28:00,
2013-05-24 08:34:00,46.2,7.4,28.99,East,97,0.0,0.0,20,0.00,,---,0.00,VWS V14.01,2013-05-24 14:34:00,
2013-05-24 08:39:00,46.6,6.5,28.99,East,96,0.0,0.0,19,0.00,,---,0.00,VWS V14.01,2013-05-24 14:39:00,
2013-05-24 08:45:00,46.9,6.8,28.99,ESE,114,0.0,0.0,19,0.00,,---,0.00,VWS V14.01,2013-05-24 14:45:00,
2013-05-24 08:51:00,46.8,6.7,29.02,SE,139,0.0,0.0,19,0.00,,---,0.00,VWS V14.01,2013-05-24 14:51:00,
2013-05-24 08:56:00,46.8,6.7,29.02,SW,222,4.0,8.3,19,0.00,,---,0.00,VWS V14.01,2013-05-24 14:56:00,
2013-05-24 09:02:00,47.5,7.3,29.02,WSW,250,3.6,3.6,19,0.00,,---,0.00,VWS V14.01,2013-05-24 15:02:00,
2013-05-24 09:07:00,48.2,7.9,28.99,SSW,209,5.8,10.5,19,0.00,,---,0.00,VWS V14.01,2013-05-24 15:07:00,
2013-05-24 09:12:00,49.3,8.8,28.99,South,187,6.3,8.3,19,0.00,,---,0.00,VWS V14.01,2013-05-24 15:12:00,
2013-05-24 09:17:00,50.0,9.4,28.99,SW,224,7.6,13.2,19,0.00,,---,0.00,VWS V14.01,2013-05-24 15:17:00,
2013-05-24 09:23:00,51.1,10.3,28.99,SW,221,4.0,7.6,19,0.00,,---,0.00,VWS V14.01,2013-05-24 15:23:00,
2013-05-24 09:28:00,52.0,9.8,28.99,East,87,0.0,15.4,18,0.00,,---,0.00,VWS V14.01,2013-05-24 15:28:00,
2013-05-24 09:34:00,52.5,10.2,28.99,WSW,245,5.4,10.1,18,0.00,,---,0.00,VWS V14.01,2013-05-24 15:34:00,
2013-05-24 09:40:00,53.4,11.0,28.96,WSW,238,5.4,8.1,18,0.00,,---,0.00,VWS V14.01,2013-05-24 15:40:00,
2013-05-24 09:45:00,54.0,11.4,28.96,South,180,5.4,8.1,18,0.00,,---,0.00,VWS V14.01,2013-05-24 15:45:00,
2013-05-24 09:50:00,54.5,11.9,28.96,SE,132,0.0,8.1,18,0.00,,---,0.00,VWS V14.01,2013-05-24 15:50:00,
2013-05-24 09:56:00,55.0,12.3,28.96,WSW,254,6.3,8.3,18,0.00,,---,0.00,VWS V14.01,2013-05-24 15:56:00,
2013-05-24 10:02:00,55.9,11.8,28.96,WNW,290,6.3,11.4,17,0.00,,---,0.00,VWS V14.01,2013-05-24 16:02:00,
2013-05-24 10:07:00,56.3,12.1,28.99,SW,224,4.0,8.1,17,0.00,,---,0.00,VWS V14.01,2013-05-24 16:07:00,
2013-05-24 10:12:00,56.3,12.1,28.99,West,267,5.8,5.8,17,0.00,,---,0.00,VWS V14.01,2013-05-24 16:12:00,
2013-05-24 10:18:00,56.7,12.4,28.99,SSW,201,3.6,8.7,17,0.00,,---,0.00,VWS V14.01,2013-05-24 16:18:00,
2013-05-24 10:23:00,57.0,12.7,28.99,SE,146,8.7,11.0,17,0.00,,---,0.00,VWS V14.01,2013-05-24 16:23:00,
2013-05-24 10:29:00,57.4,12.9,28.99,SSW,207,5.4,5.4,17,0.00,,---,0.00,VWS V14.01,2013-05-24 16:29:00,
2013-05-24 10:35:00,58.1,13.5,28.99,SW,226,11.0,11.0,17,0.00,,---,0.00,VWS V14.01,2013-05-24 16:35:00,
2013-05-24 10:41:00,58.3,13.7,28.99,SW,215,5.8,5.8,17,0.00,,---,0.00,VWS V14.01,2013-05-24 16:41:00,
2013-05-24 10:47:00,58.8,14.1,28.99,WSW,246,8.3,11.0,17,0.00,,---,0.00,VWS V14.01,2013-05-24 16:47:00,
2013-05-24 10:52:00,59.2,14.4,28.99,WSW,239,3.1,16.8,17,0.00,,---,0.00,VWS V14.01,2013-05-24 16:52:00,
2013-05-24 10:57:00,59.4,14.6,28.99,SSW,208,15.4,15.4,17,0.00,,---,0.00,VWS V14.01,2013-05-24 16:57:00,
2013-05-24 11:03:00,60.4,15.4,28.99,WNW,288,2.7,15.0,17,0.00,,---,0.00,VWS V14.01,2013-05-24 17:03:00,
2013-05-24 11:09:00,61.2,14.6,28.96,WSW,240,8.1,13.2,16,0.00,,---,0.00,VWS V14.01,2013-05-24 17:09:00,
2013-05-24 11:14:00,61.7,15.1,28.96,WSW,249,7.6,12.8,16,0.00,,---,0.00,VWS V14.01,2013-05-24 17:14:00,
2013-05-24 11:21:00,61.9,15.2,28.96,South,187,8.3,10.1,16,0.00,,---,0.00,VWS V14.01,2013-05-24 17:21:00,
2013-05-24 11:26:00,62.1,15.4,28.96,North,1,3.6,8.3,16,0.00,,---,0.00,VWS V14.01,2013-05-24 17:26:00,
2013-05-24 11:31:00,62.2,15.5,28.96,West,263,5.8,11.0,16,0.00,,---,0.00,VWS V14.01,2013-05-24 17:31:00,
2013-05-24 11:36:00,62.4,15.7,28.99,WNW,292,6.3,13.2,16,0.00,,---,0.00,VWS V14.01,2013-05-24 17:36:00,
2013-05-24 11:42:00,63.0,16.1,28.99,WSW,246,3.1,8.3,16,0.00,,---,0.00,VWS V14.01,2013-05-24 17:42:00,
2013-05-24 11:47:00,63.7,16.7,28.99,West,277,9.6,9.6,16,0.00,,---,0.00,VWS V14.01,2013-05-24 17:47:00,
2013-05-24 11:53:00,63.9,16.8,28.96,SW,226,8.7,11.0,16,0.00,,---,0.00,VWS V14.01,2013-05-24 17:53:00,
2013-05-24 11:59:00,64.2,17.1,28.96,WSW,252,3.1,12.3,16,0.00,,---,0.00,VWS V14.01,2013-05-24 17:59:00,
2013-05-24 12:04:00,64.6,15.9,28.96,West,260,13.2,13.2,15,0.00,,---,0.00,VWS V14.01,2013-05-24 18:04:00,
2013-05-24 12:10:00,64.8,16.1,28.96,West,263,8.3,16.8,15,0.00,,---,0.00,VWS V14.01,2013-05-24 18:10:00,
2013-05-24 12:16:00,64.8,16.1,28.96,SW,226,5.4,15.0,15,0.00,,---,0.00,VWS V14.01,2013-05-24 18:16:00,
2013-05-24 12:20:00,64.9,16.2,28.99,West,266,5.8,15.4,15,0.00,,---,0.00,VWS V14.01,2013-05-24 18:20:00,
2013-05-24 12:26:00,65.1,16.4,28.99,SSW,198,7.6,19.7,15,0.00,,---,0.00,VWS V14.01,2013-05-24 18:26:00,
2013-05-24 12:31:00,65.3,16.5,28.99,SSE,164,22.4,22.4,15,0.00,,---,0.00,VWS V14.01,2013-05-24 18:31:00,
2013-05-24 12:36:00,65.1,16.4,28.96,WSW,250,8.7,15.4,15,0.00,,---,0.00,VWS V14.01,2013-05-24 18:36:00,
2013-05-24 12:43:00,65.5,16.6,28.96,South,184,10.5,13.6,15,0.00,,---,0.00,VWS V14.01,2013-05-24 18:43:00,
2013-05-24 12:48:00,65.7,16.8,28.96,WSW,245,6.7,13.2,15,0.00,,---,0.00,VWS V14.01,2013-05-24 18:48:00,
2013-05-24 12:54:00,66.0,17.1,28.99,SW,233,13.2,13.2,15,0.00,,---,0.00,VWS V14.01,2013-05-24 18:54:00,
2013-05-24 12:59:00,66.4,17.4,28.99,SSE,156,5.4,13.2,15,0.00,,---,0.00,VWS V14.01,2013-05-24 18:59:00,
2013-05-24 13:04:00,66.6,17.5,28.99,SSE,151,8.7,12.3,15,0.00,,---,0.00,VWS V14.01,2013-05-24 19:04:00,
2013-05-24 13:09:00,66.7,17.6,28.96,West,261,7.6,12.3,15,0.00,,---,0.00,VWS V14.01,2013-05-24 19:09:00,
2013-05-24 13:16:00,66.9,17.8,28.96,South,182,8.3,12.8,15,0.00,,---,0.00,VWS V14.01,2013-05-24 19:16:00,
2013-05-24 13:21:00,67.3,18.1,28.99,SSW,199,8.1,17.4,15,0.00,,---,0.00,VWS V14.01,2013-05-24 19:21:00,
2013-05-24 13:26:00,67.1,17.9,28.99,WSW,237,8.1,8.7,15,0.00,,---,0.00,VWS V14.01,2013-05-24 19:26:00,
2013-05-24 13:31:00,67.3,18.1,28.99,WSW,252,5.4,15.0,15,0.00,,---,0.00,VWS V14.01,2013-05-24 19:31:00,
2013-05-24 13:36:00,67.6,18.4,28.99,West,259,10.1,11.0,15,0.00,,---,0.00,VWS V14.01,2013-05-24 19:36:00,
2013-05-24 13:41:00,67.8,18.5,28.99,SW,217,10.5,17.4,15,0.00,,---,0.00,VWS V14.01,2013-05-24 19:41:00,
2013-05-24 13:46:00,68.0,18.7,28.99,WSW,247,12.8,12.8,15,0.00,,---,0.00,VWS V14.01,2013-05-24 19:46:00,
2013-05-24 13:52:00,68.5,19.1,28.99,WSW,242,6.3,11.0,15,0.00,,---,0.00,VWS V14.01,2013-05-24 19:52:00,
2013-05-24 13:58:00,68.7,19.2,28.99,West,281,15.0,21.9,15,0.00,,---,0.00,VWS V14.01,2013-05-24 19:58:00,
2013-05-24 14:03:00,68.7,19.2,28.99,ENE,76,5.8,15.4,15,0.00,,---,0.00,VWS V14.01,2013-05-24 20:03:00,
2013-05-24 14:09:00,68.9,19.4,28.99,SSW,210,8.1,12.3,15,0.00,,---,0.00,VWS V14.01,2013-05-24 20:09:00,
2013-05-24 14:14:00,68.9,19.4,28.99,West,279,10.5,17.4,15,0.00,,---,0.00,VWS V14.01,2013-05-24 20:14:00,
2013-05-24 14:20:00,69.3,19.7,28.99,SW,222,17.0,22.8,15,0.00,,---,0.00,VWS V14.01,2013-05-24 20:20:00,
2013-05-24 14:26:00,69.1,19.5,28.99,SSW,202,8.1,18.3,15,0.00,,---,0.00,VWS V14.01,2013-05-24 20:26:00,
2013-05-24 14:32:00,69.1,19.5,28.99,SW,222,8.3,15.4,15,0.00,,---,0.00,VWS V14.01,2013-05-24 20:32:00,
2013-05-24 14:38:00,69.8,18.5,28.99,SW,234,5.8,15.0,14,0.00,,---,0.00,VWS V14.01,2013-05-24 20:38:00,
2013-05-24 14:44:00,70.5,19.1,28.99,NNE,25,4.0,11.4,14,0.00,,---,0.00,VWS V14.01,2013-05-24 20:44:00,
2013-05-24 14:49:00,71.1,19.5,28.99,SW,232,5.8,5.8,14,0.00,,---,0.00,VWS V14.01,2013-05-24 20:49:00,
2013-05-24 14:55:00,72.1,20.4,28.99,SSE,153,11.9,12.3,14,0.00,,---,0.00,VWS V14.01,2013-05-24 20:55:00,
2013-05-24 15:00:00,72.5,20.6,28.99,South,184,5.8,12.8,14,0.00,,---,0.00,VWS V14.01,2013-05-24 21:00:00,
2013-05-24 15:05:00,72.5,20.6,28.99,SSW,207,10.1,13.2,14,0.00,,---,0.00,VWS V14.01,2013-05-24 21:05:00,
2013-05-24 15:10:00,72.3,20.5,28.96,West,267,5.8,10.5,14,0.00,,---,0.00,VWS V14.01,2013-05-24 21:10:00,
2013-05-24 15:16:00,72.7,20.8,28.96,SW,224,6.7,10.1,14,0.00,,---,0.00,VWS V14.01,2013-05-24 21:16:00,
2013-05-24 15:22:00,72.7,20.8,28.99,SW,216,3.6,12.8,14,0.00,,---,0.00,VWS V14.01,2013-05-24 21:22:00,
2013-05-24 15:28:00,73.8,19.9,28.99,SW,215,10.1,12.3,13,0.00,,---,0.00,VWS V14.01,2013-05-24 21:28:00,
2013-05-24 15:33:00,73.8,19.9,28.99,SW,220,17.0,17.0,13,0.00,,---,0.00,VWS V14.01,2013-05-24 21:33:00,
2013-05-24 15:39:00,73.4,19.6,28.99,NW,304,4.0,17.0,13,0.00,,---,0.00,VWS V14.01,2013-05-24 21:39:00,
2013-05-24 15:45:00,73.4,19.6,28.99,WNW,297,14.5,15.0,13,0.00,,---,0.00,VWS V14.01,2013-05-24 21:45:00,
2013-05-24 15:50:00,73.0,21.1,28.99,West,270,8.1,15.4,14,0.00,,---,0.00,VWS V14.01,2013-05-24 21:50:00,
2013-05-24 15:56:00,72.7,20.8,28.99,SSW,193,12.8,20.1,14,0.00,,---,0.00,VWS V14.01,2013-05-24 21:56:00,
2013-05-24 16:01:00,71.8,20.1,28.99,SSW,192,5.4,14.1,14,0.00,,---,0.00,VWS V14.01,2013-05-24 22:01:00,
2013-05-24 16:06:00,71.8,20.1,28.99,SW,235,3.1,14.5,14,0.00,,---,0.00,VWS V14.01,2013-05-24 22:06:00,
2013-05-24 16:12:00,73.0,21.1,28.99,West,262,8.3,13.2,14,0.00,,---,0.00,VWS V14.01,2013-05-24 22:12:00,
2013-05-24 16:18:00,73.0,21.1,28.99,SSW,209,12.8,13.2,14,0.00,,---,0.00,VWS V14.01,2013-05-24 22:18:00,
2013-05-24 16:23:00,72.9,20.9,28.99,SW,227,10.1,13.2,14,0.00,,---,0.00,VWS V14.01,2013-05-24 22:23:00,
2013-05-24 16:29:00,72.3,20.5,28.99,SSW,196,14.1,14.1,14,0.00,,---,0.00,VWS V14.01,2013-05-24 22:29:00,
2013-05-24 16:34:00,72.0,20.2,28.99,SSE,147,5.8,12.3,14,0.00,,---,0.00,VWS V14.01,2013-05-24 22:34:00,
2013-05-24 16:40:00,71.4,19.8,28.99,ENE,74,4.9,5.4,14,0.00,,---,0.00,VWS V14.01,2013-05-24 22:40:00,
2013-05-24 16:45:00,71.4,19.8,28.99,WSW,254,6.3,10.1,14,0.00,,---,0.00,VWS V14.01,2013-05-24 22:45:00,
2013-05-24 16:51:00,71.4,19.8,28.99,WNW,292,8.3,12.8,14,0.00,,---,0.00,VWS V14.01,2013-05-24 22:51:00,
2013-05-24 16:57:00,71.4,19.8,28.99,SW,230,8.3,8.3,14,0.00,,---,0.00,VWS V14.01,2013-05-24 22:57:00,
2013-05-24 17:02:00,72.0,20.2,28.99,WSW,254,5.8,13.2,14,0.00,,---,0.00,VWS V14.01,2013-05-24 23:02:00,
2013-05-24 17:08:00,71.6,19.9,28.99,SSW,208,5.8,15.0,14,0.00,,---,0.00,VWS V14.01,2013-05-24 23:08:00,
2013-05-24 17:13:00,71.2,19.6,28.99,West,265,15.0,16.8,14,0.00,,---,0.00,VWS V14.01,2013-05-24 23:13:00,
2013-05-24 17:19:00,71.4,19.8,28.99,SSW,193,15.4,17.4,14,0.00,,---,0.00,VWS V14.01,2013-05-24 23:19:00,
2013-05-24 17:24:00,70.5,19.1,28.99,SSW,212,5.4,13.2,14,0.00,,---,0.00,VWS V14.01,2013-05-24 23:24:00,
2013-05-24 17:30:00,70.7,19.2,28.99,SSW,208,9.6,17.4,14,0.00,,---,0.00,VWS V14.01,2013-05-24 23:30:00,
2013-05-24 17:35:00,71.1,19.5,28.99,WNW,288,8.7,13.2,14,0.00,,---,0.00,VWS V14.01,2013-05-24 23:35:00,
2013-05-24 17:41:00,71.1,19.5,28.99,SSW,193,10.1,22.8,14,0.00,,---,0.00,VWS V14.01,2013-05-24 23:41:00,
2013-05-24 17:47:00,70.9,19.4,28.99,South,189,12.3,13.2,14,0.00,,---,0.00,VWS V14.01,2013-05-24 23:47:00,
2013-05-24 17:52:00,70.9,19.4,28.99,SSW,196,14.1,14.1,14,0.00,,---,0.00,VWS V14.01,2013-05-24 23:52:00,
2013-05-24 17:57:00,70.5,19.1,28.99,SSW,204,8.3,12.8,14,0.00,,---,0.00,VWS V14.01,2013-05-24 23:57:00,
2013-05-24 18:02:00,69.8,18.5,28.99,SW,228,8.7,15.4,14,0.00,,---,0.00,VWS V14.01,2013-05-25 00:02:00,
2013-05-24 18:08:00,69.6,20.0,28.99,South,173,12.3,12.3,15,0.00,,---,0.00,VWS V14.01,2013-05-25 00:08:00,
2013-05-24 18:13:00,69.6,20.0,28.99,SW,215,11.0,15.4,15,0.00,,---,0.00,VWS V14.01,2013-05-25 00:13:00,
2013-05-24 18:19:00,69.8,18.5,28.99,SSW,200,8.7,13.6,14,0.00,,---,0.00,VWS V14.01,2013-05-25 00:19:00,
2013-05-24 18:24:00,70.0,18.6,28.99,WSW,257,5.8,9.6,14,0.00,,---,0.00,VWS V14.01,2013-05-25 00:24:00,
2013-05-24 18:30:00,69.4,19.8,28.99,SSW,194,11.0,14.5,15,0.00,,---,0.00,VWS V14.01,2013-05-25 00:30:00,
2013-05-24 18:35:00,68.9,19.4,29.02,South,189,10.5,15.9,15,0.00,,---,0.00,VWS V14.01,2013-05-25 00:35:00,
2013-05-24 18:41:00,68.4,19.0,29.02,SW,218,7.2,12.8,15,0.00,,---,0.00,VWS V14.01,2013-05-25 00:41:00,
2013-05-24 18:47:00,67.6,18.4,29.02,SSW,210,5.8,8.1,15,0.00,,---,0.00,VWS V14.01,2013-05-25 00:47:00,
2013-05-24 18:52:00,67.5,18.2,29.02,SW,229,4.9,12.8,15,0.00,,---,0.00,VWS V14.01,2013-05-25 00:52:00,
2013-05-24 18:58:00,66.9,17.8,29.02,WSW,241,8.7,13.2,15,0.00,,---,0.00,VWS V14.01,2013-05-25 00:58:00,
2013-05-24 19:04:00,66.6,17.5,29.02,SW,217,8.3,10.5,15,0.00,,---,0.00,VWS V14.01,2013-05-25 01:04:00,
2013-05-24 19:09:00,66.4,17.4,29.02,West,266,5.4,13.2,15,0.00,,---,0.00,VWS V14.01,2013-05-25 01:09:00,
2013-05-24 19:15:00,66.4,17.4,29.02,SW,232,3.6,8.1,15,0.00,,---,0.00,VWS V14.01,2013-05-25 01:15:00,
2013-05-24 19:20:00,66.2,17.2,29.02,SSW,208,5.4,9.2,15,0.00,,---,0.00,VWS V14.01,2013-05-25 01:20:00,
2013-05-24 19:26:00,65.8,16.9,29.02,SSE,164,3.6,9.6,15,0.00,,---,0.00,VWS V14.01,2013-05-25 01:26:00,
2013-05-24 19:32:00,65.7,16.8,29.02,SW,227,5.8,5.8,15,0.00,,---,0.00,VWS V14.01,2013-05-25 01:32:00,
2013-05-24 19:37:00,65.5,16.6,29.02,SSW,212,4.0,5.8,15,0.00,,---,0.00,VWS V14.01,2013-05-25 01:37:00,
2013-05-24 19:43:00,65.1,16.4,29.02,West,264,3.6,5.4,15,0.00,,---,0.00,VWS V14.01,2013-05-25 01:43:00,
2013-05-24 19:48:00,64.8,16.1,29.02,WSW,241,3.1,3.1,15,0.00,,---,0.00,VWS V14.01,2013-05-25 01:48:00,
2013-05-24 19:54:00,64.4,15.8,29.02,SSE,154,0.0,3.1,15,0.00,,---,0.00,VWS V14.01,2013-05-25 01:54:00,
2013-05-24 20:00:00,64.0,17.0,29.02,SW,230,2.7,3.6,16,0.00,,---,0.00,VWS V14.01,2013-05-25 02:00:00,
2013-05-24 20:05:00,63.9,16.8,29.02,South,190,3.6,5.4,16,0.00,,---,0.00,VWS V14.01,2013-05-25 02:05:00,
2013-05-24 20:10:00,63.7,16.7,29.02,SSW,195,5.8,5.8,16,0.00,,---,0.00,VWS V14.01,2013-05-25 02:10:00,
2013-05-24 20:15:00,63.3,16.4,29.02,ESE,110,3.6,4.9,16,0.00,,---,0.00,VWS V14.01,2013-05-25 02:15:00,
2013-05-24 20:21:00,63.1,16.2,29.02,SSW,205,4.9,4.9,16,0.00,,---,0.00,VWS V14.01,2013-05-25 02:21:00,
2013-05-24 20:26:00,62.8,15.9,29.02,SW,217,0.0,5.4,16,0.00,,---,0.00,VWS V14.01,2013-05-25 02:26:00,
2013-05-24 20:32:00,62.6,15.8,29.02,SSE,166,0.0,4.5,16,0.00,,---,0.00,VWS V14.01,2013-05-25 02:32:00,
2013-05-24 20:37:00,62.2,15.5,29.02,SW,220,8.1,8.1,16,0.00,,---,0.00,VWS V14.01,2013-05-25 02:37:00,
2013-05-24 20:43:00,61.7,15.1,29.02,SE,132,4.9,5.4,16,0.00,,---,0.00,VWS V14.01,2013-05-25 02:43:00,
2013-05-24 20:48:00,61.5,14.9,29.02,SSE,147,0.0,0.0,16,0.00,,---,0.00,VWS V14.01,2013-05-25 02:48:00,
2013-05-24 20:54:00,61.5,14.9,29.02,ESE,118,0.0,2.7,16,0.00,,---,0.00,VWS V14.01,2013-05-25 02:54:00,
2013-05-24 21:00:00,61.2,14.6,29.02,West,264,2.2,3.6,16,0.00,,---,0.00,VWS V14.01,2013-05-25 03:00:00,
2013-05-24 21:06:00,60.4,15.4,29.02,SW,223,0.0,0.0,17,0.00,,---,0.00,VWS V14.01,2013-05-25 03:06:00,
2013-05-24 21:11:00,59.9,15.0,29.02,SSW,199,0.0,3.6,17,0.00,,---,0.00,VWS V14.01,2013-05-25 03:11:00,
2013-05-24 21:17:00,59.5,14.7,29.02,WSW,242,0.0,0.0,17,0.00,,---,0.00,VWS V14.01,2013-05-25 03:17:00,
2013-05-24 21:22:00,59.4,14.6,29.02,WSW,242,0.0,0.0,17,0.00,,---,0.00,VWS V14.01,2013-05-25 03:22:00,
2013-05-24 21:27:00,59.2,14.4,29.02,WSW,242,0.0,0.0,17,0.00,,---,0.00,VWS V14.01,2013-05-25 03:27:00,
2013-05-24 21:32:00,58.8,14.1,29.02,WSW,242,0.0,0.0,17,0.00,,---,0.00,VWS V14.01,2013-05-25 03:32:00,
2013-05-24 21:38:00,58.1,13.5,29.05,South,171,0.0,0.0,17,0.00,,---,0.00,VWS V14.01,2013-05-25 03:38:00,
2013-05-24 21:43:00,57.7,13.2,29.05,South,185,0.0,0.0,17,0.00,,---,0.00,VWS V14.01,2013-05-25 03:43:00,
2013-05-24 21:49:00,57.6,13.1,29.05,South,185,0.0,0.0,17,0.00,,---,0.00,VWS V14.01,2013-05-25 03:49:00,
2013-05-24 21:55:00,57.4,12.9,29.02,South,185,0.0,0.0,17,0.00,,---,0.00,VWS V14.01,2013-05-25 03:55:00,
2013-05-24 22:00:00,57.2,12.8,29.02,South,179,0.0,0.0,17,0.00,,---,0.00,VWS V14.01,2013-05-25 04:00:00,
2013-05-24 22:01:00,57.2,12.8,29.02,South,179,0.0,0.0,17,0.00,,---,0.00,VWS V14.01,2013-05-25 04:01:00,
2013-05-24 22:02:00,57.0,12.7,29.02,SW,224,0.0,0.0,17,0.00,,---,0.00,VWS V14.01,2013-05-25 04:02:00,
2013-05-24 22:03:00,57.0,12.7,29.02,WSW,239,0.0,0.0,17,0.00,,---,0.00,VWS V14.01,2013-05-25 04:03:00,
2013-05-24 22:05:00,56.8,12.5,29.02,WSW,239,0.0,0.0,17,0.00,,---,0.00,VWS V14.01,2013-05-25 04:05:00,
2013-05-24 22:06:00,56.8,12.5,29.02,WSW,239,0.0,0.0,17,0.00,,---,0.00,VWS V14.01,2013-05-25 04:06:00,
2013-05-24 22:11:00,56.7,12.4,29.02,WSW,239,0.0,0.0,17,0.00,,---,0.00,VWS V14.01,2013-05-25 04:11:00,
2013-05-24 22:17:00,56.1,11.9,29.02,WSW,239,0.0,0.0,17,0.00,,---,0.00,VWS V14.01,2013-05-25 04:17:00,
2013-05-24 22:23:00,55.6,11.5,29.02,WSW,240,0.0,0.0,17,0.00,,---,0.00,VWS V14.01,2013-05-25 04:23:00,
2013-05-24 22:28:00,54.9,12.2,29.02,WSW,240,0.0,0.0,18,0.00,,---,0.00,VWS V14.01,2013-05-25 04:28:00,
2013-05-24 22:34:00,54.7,12.0,29.02,WSW,240,0.0,0.0,18,0.00,,---,0.00,VWS V14.01,2013-05-25 04:34:00,
2013-05-24 22:39:00,54.5,11.9,29.02,WSW,240,0.0,0.0,18,0.00,,---,0.00,VWS V14.01,2013-05-25 04:39:00,
2013-05-24 22:45:00,54.3,11.7,29.02,WSW,240,0.0,0.0,18,0.00,,---,0.00,VWS V14.01,2013-05-25 04:45:00,
2013-05-24 22:51:00,54.0,11.4,29.05,WSW,240,0.0,0.0,18,0.00,,---,0.00,VWS V14.01,2013-05-25 04:51:00,
2013-05-24 22:57:00,53.8,11.3,29.05,WSW,240,0.0,0.0,18,0.00,,---,0.00,VWS V14.01,2013-05-25 04:57:00,
2013-05-24 23:02:00,53.4,11.0,29.05,WSW,240,0.0,0.0,18,0.00,,---,0.00,VWS V14.01,2013-05-25 05:02:00,
2013-05-24 23:07:00,53.2,10.9,29.05,SSW,196,3.1,4.9,18,0.00,,---,0.00,VWS V14.01,2013-05-25 05:07:00,
2013-05-24 23:13:00,52.2,10.0,29.05,South,181,0.0,3.1,18,0.00,,---,0.00,VWS V14.01,2013-05-25 05:13:00,
2013-05-24 23:19:00,51.4,10.6,29.05,SSE,162,2.2,4.0,19,0.00,,---,0.00,VWS V14.01,2013-05-25 05:19:00,
2013-05-24 23:25:00,50.7,10.0,29.02,SW,214,0.0,0.0,19,0.00,,---,0.00,VWS V14.01,2013-05-25 05:25:00,
2013-05-24 23:31:00,50.0,9.4,29.02,SSW,196,2.7,5.8,19,0.00,,---,0.00,VWS V14.01,2013-05-25 05:31:00,
2013-05-24 23:36:00,49.8,9.2,29.05,SW,225,2.7,5.4,19,0.00,,---,0.00,VWS V14.01,2013-05-25 05:36:00,
2013-05-24 23:41:00,49.5,8.9,29.05,South,170,2.2,6.7,19,0.00,,---,0.00,VWS V14.01,2013-05-25 05:41:00,
2013-05-24 23:47:00,48.9,8.5,29.05,SW,227,0.0,2.2,19,0.00,,---,0.00,VWS V14.01,2013-05-25 05:47:00,
2013-05-24 23:52:00,48.7,8.3,29.02,SW,218,8.1,8.1,19,0.00,,---,0.00,VWS V14.01,2013-05-25 05:52:00,
2013-05-24 23:57:00,48.4,8.0,29.02,South,183,7.6,7.6,19,0.00,,---,0.00,VWS V14.01,2013-05-25 05:57:00,